WAT7982 LEGR-LFRS
Flight info
| Callsign | WAT7982 |
|---|---|
| Flight time | N/A |
| Altitude | 34000 |
| Route | BLN DCT MORAL DCT BEXID DCT VTB DCT RBO N867 DGO DCT CEGAM L176 LUSEM DCT LULUT DCT CNA DCT MANAK |
| Aircraft | E135/M-SDFGIRW/S |
Departure
| Time | 2026-04-16 15:07 |
|---|---|
| Airport | F.G.L. Airport Granada-Jaén Airport (LEGR) |
Arrival
| Time | N/A |
|---|---|
| Airport | Nantes Atlantique Airport (LFRS) |
| Time | Latitude | Longitude | Altitude | Speed | Heading |
|---|---|---|---|---|---|
| 2026-04-16 14:40 | 37.18615 | -3.77562 | 1883 ft | 0 kts | 270° |
| 2026-04-16 15:02 | 37.18615 | -3.77565 | 1882 ft | 1 kts | 270° |
| 2026-04-16 15:02 | 37.18615 | -3.77596 | 1882 ft | 6 kts | 270° |
| 2026-04-16 15:03 | 37.18669 | -3.77621 | 1879 ft | 12 kts | 358° |
| 2026-04-16 15:03 | 37.18708 | -3.77546 | 1877 ft | 13 kts | 89° |
| 2026-04-16 15:03 | 37.18709 | -3.77424 | 1877 ft | 14 kts | 89° |
| 2026-04-16 15:03 | 37.18709 | -3.77292 | 1877 ft | 15 kts | 90° |
| 2026-04-16 15:04 | 37.18709 | -3.77143 | 1877 ft | 17 kts | 90° |
| 2026-04-16 15:04 | 37.18710 | -3.76979 | 1876 ft | 19 kts | 89° |
| 2026-04-16 15:04 | 37.18711 | -3.76798 | 1877 ft | 20 kts | 89° |
| 2026-04-16 15:04 | 37.18714 | -3.76609 | 1877 ft | 21 kts | 89° |
| 2026-04-16 15:05 | 37.18716 | -3.76418 | 1879 ft | 21 kts | 89° |
| 2026-04-16 15:05 | 37.18717 | -3.76228 | 1882 ft | 20 kts | 89° |
| 2026-04-16 15:05 | 37.18755 | -3.76140 | 1882 ft | 12 kts | 3° |
| 2026-04-16 15:05 | 37.18856 | -3.76141 | 1879 ft | 12 kts | 359° |
| 2026-04-16 15:06 | 37.18886 | -3.76166 | 1878 ft | 0 kts | 268° |
| 2026-04-16 15:06 | 37.18885 | -3.76188 | 1877 ft | 8 kts | 268° |
| 2026-04-16 15:06 | 37.18882 | -3.76525 | 1872 ft | 76 kts | 270° |
| 2026-04-16 15:06 | 37.18876 | -3.77474 | 1872 ft | 137 kts | 269° |
| 2026-04-16 15:07 | 37.18874 | -3.78821 | 2085 ft | 161 kts | 268° |
| 2026-04-16 15:07 | 37.18857 | -3.80311 | 2635 ft | 172 kts | 262° |
| 2026-04-16 15:07 | 37.18763 | -3.81818 | 3275 ft | 177 kts | 265° |
| 2026-04-16 15:07 | 37.18711 | -3.83369 | 3934 ft | 178 kts | 266° |
| 2026-04-16 15:08 | 37.18672 | -3.84934 | 4517 ft | 179 kts | 267° |
| 2026-04-16 15:08 | 37.18630 | -3.86609 | 4670 ft | 211 kts | 268° |
| 2026-04-16 15:08 | 37.18581 | -3.88625 | 4721 ft | 249 kts | 268° |
| 2026-04-16 15:08 | 37.18523 | -3.90938 | 5149 ft | 268 kts | 268° |
| 2026-04-16 15:09 | 37.18464 | -3.93285 | 5985 ft | 267 kts | 269° |
| 2026-04-16 15:09 | 37.18405 | -3.95612 | 6756 ft | 269 kts | 269° |
| 2026-04-16 15:09 | 37.18344 | -3.97990 | 7468 ft | 273 kts | 269° |
| 2026-04-16 15:09 | 37.18329 | -4.00389 | 8155 ft | 276 kts | 277° |
| 2026-04-16 15:10 | 37.19016 | -4.02655 | 8875 ft | 276 kts | 308° |
| 2026-04-16 15:10 | 37.20518 | -4.04147 | 9539 ft | 276 kts | 339° |
| 2026-04-16 15:10 | 37.22401 | -4.04467 | 10187 ft | 275 kts | 9° |
| 2026-04-16 15:10 | 37.24181 | -4.03544 | 10757 ft | 280 kts | 38° |
| 2026-04-16 15:11 | 37.25579 | -4.01752 | 11227 ft | 290 kts | 48° |
| 2026-04-16 15:11 | 37.26982 | -3.99819 | 11670 ft | 302 kts | 47° |
| 2026-04-16 15:11 | 37.28447 | -3.97812 | 12111 ft | 311 kts | 46° |
| 2026-04-16 15:11 | 37.30242 | -3.96189 | 12540 ft | 320 kts | 22° |
| 2026-04-16 15:12 | 37.32474 | -3.95719 | 13115 ft | 324 kts | 358° |
| 2026-04-16 15:12 | 37.34759 | -3.95584 | 13677 ft | 327 kts | 14° |
| 2026-04-16 15:12 | 37.36890 | -3.94513 | 14248 ft | 329 kts | 21° |
| 2026-04-16 15:12 | 37.39112 | -3.93605 | 14823 ft | 332 kts | 18° |
| 2026-04-16 15:13 | 37.41338 | -3.92692 | 15368 ft | 336 kts | 18° |
| 2026-04-16 15:13 | 37.43604 | -3.91776 | 15938 ft | 338 kts | 18° |
| 2026-04-16 15:13 | 37.45888 | -3.90851 | 16495 ft | 341 kts | 18° |
| 2026-04-16 15:13 | 37.48162 | -3.89930 | 17027 ft | 344 kts | 18° |
| 2026-04-16 15:14 | 37.50473 | -3.88993 | 17557 ft | 347 kts | 17° |
| 2026-04-16 15:14 | 37.52816 | -3.88042 | 18088 ft | 348 kts | 17° |
| 2026-04-16 15:14 | 37.55162 | -3.87090 | 18693 ft | 348 kts | 17° |
| 2026-04-16 15:14 | 37.57495 | -3.86142 | 19323 ft | 346 kts | 17° |
| 2026-04-16 15:15 | 37.59817 | -3.85198 | 19912 ft | 346 kts | 17° |
| 2026-04-16 15:15 | 37.62104 | -3.84268 | 20490 ft | 345 kts | 17° |
| 2026-04-16 15:15 | 37.64435 | -3.83319 | 21061 ft | 345 kts | 17° |
| 2026-04-16 15:15 | 37.66752 | -3.82375 | 21646 ft | 344 kts | 17° |
| 2026-04-16 15:16 | 37.69037 | -3.81444 | 22213 ft | 343 kts | 17° |
| 2026-04-16 15:16 | 37.71370 | -3.80493 | 22789 ft | 343 kts | 17° |
| 2026-04-16 15:16 | 37.73653 | -3.79561 | 23360 ft | 342 kts | 17° |
| 2026-04-16 15:16 | 37.75941 | -3.78627 | 23953 ft | 340 kts | 17° |
| 2026-04-16 15:17 | 37.78233 | -3.77690 | 24558 ft | 338 kts | 17° |
| 2026-04-16 15:17 | 37.80495 | -3.76765 | 25120 ft | 337 kts | 17° |
| 2026-04-16 15:17 | 37.82739 | -3.75847 | 25640 ft | 336 kts | 16° |
| 2026-04-16 15:17 | 37.84985 | -3.74928 | 26158 ft | 335 kts | 16° |
| 2026-04-16 15:18 | 37.87231 | -3.74007 | 26673 ft | 334 kts | 16° |
| 2026-04-16 15:18 | 37.89478 | -3.73086 | 27184 ft | 333 kts | 16° |
| 2026-04-16 15:18 | 37.91701 | -3.72174 | 27704 ft | 331 kts | 15° |
| 2026-04-16 15:18 | 37.93901 | -3.71272 | 28222 ft | 329 kts | 15° |
| 2026-04-16 15:19 | 37.96112 | -3.70363 | 28750 ft | 327 kts | 15° |
| 2026-04-16 15:19 | 37.98314 | -3.69459 | 29244 ft | 325 kts | 15° |
| 2026-04-16 15:19 | 38.00469 | -3.68572 | 29716 ft | 324 kts | 15° |
| 2026-04-16 15:19 | 38.02647 | -3.67676 | 30186 ft | 322 kts | 15° |
| 2026-04-16 15:20 | 38.04806 | -3.66787 | 30625 ft | 321 kts | 15° |
| 2026-04-16 15:20 | 38.06937 | -3.65910 | 31008 ft | 322 kts | 15° |
| 2026-04-16 15:20 | 38.09104 | -3.65016 | 31395 ft | 322 kts | 15° |
| 2026-04-16 15:20 | 38.11250 | -3.64131 | 31794 ft | 322 kts | 14° |
| 2026-04-16 15:21 | 38.13427 | -3.63232 | 32210 ft | 321 kts | 14° |
| 2026-04-16 15:21 | 38.15624 | -3.62454 | 32602 ft | 318 kts | 6° |
| 2026-04-16 15:21 | 38.17851 | -3.62198 | 32980 ft | 316 kts | 0° |
| 2026-04-16 15:21 | 38.20057 | -3.62001 | 33374 ft | 315 kts | 1° |
| 2026-04-16 15:22 | 38.22311 | -3.61790 | 33648 ft | 318 kts | 0° |
| 2026-04-16 15:22 | 38.24560 | -3.61576 | 33925 ft | 321 kts | 0° |
| 2026-04-16 15:22 | 38.26813 | -3.61360 | 34160 ft | 326 kts | 1° |
| 2026-04-16 15:22 | 38.29164 | -3.61134 | 34172 ft | 337 kts | 1° |
| 2026-04-16 15:23 | 38.31577 | -3.60900 | 34174 ft | 344 kts | 1° |
| 2026-04-16 15:23 | 38.36500 | -3.60424 | 34182 ft | 356 kts | 1° |
| 2026-04-16 15:24 | 38.41594 | -3.59930 | 34183 ft | 368 kts | 1° |
| 2026-04-16 15:24 | 38.46832 | -3.59422 | 34187 ft | 379 kts | 1° |
| 2026-04-16 15:25 | 38.52245 | -3.58895 | 34192 ft | 389 kts | 1° |
| 2026-04-16 15:25 | 38.57784 | -3.58356 | 34191 ft | 398 kts | 1° |
| 2026-04-16 15:26 | 38.63427 | -3.57806 | 34188 ft | 407 kts | 1° |
| 2026-04-16 15:26 | 38.69174 | -3.57245 | 34181 ft | 414 kts | 1° |
| 2026-04-16 15:27 | 38.75050 | -3.56670 | 34173 ft | 421 kts | 1° |
| 2026-04-16 15:27 | 38.81010 | -3.56086 | 34176 ft | 427 kts | 1° |
| 2026-04-16 15:28 | 38.87069 | -3.55491 | 34176 ft | 432 kts | 1° |
| 2026-04-16 15:28 | 38.93178 | -3.54890 | 34167 ft | 434 kts | 1° |
| 2026-04-16 15:29 | 38.99231 | -3.54294 | 34166 ft | 430 kts | 1° |
| 2026-04-16 15:29 | 39.05240 | -3.53702 | 34159 ft | 426 kts | 1° |
| 2026-04-16 15:30 | 39.11235 | -3.53103 | 34162 ft | 422 kts | 1° |
| 2026-04-16 15:30 | 39.17103 | -3.52518 | 34159 ft | 421 kts | 1° |
| 2026-04-16 15:31 | 39.23028 | -3.51927 | 34159 ft | 420 kts | 1° |
| 2026-04-16 15:31 | 39.28913 | -3.51339 | 34156 ft | 420 kts | 1° |
| 2026-04-16 15:32 | 39.34803 | -3.50749 | 34156 ft | 419 kts | 1° |
| 2026-04-16 15:32 | 39.40690 | -3.50159 | 34155 ft | 418 kts | 1° |
| 2026-04-16 15:33 | 39.46526 | -3.49573 | 34157 ft | 418 kts | 1° |
| 2026-04-16 15:33 | 39.52394 | -3.48983 | 34157 ft | 417 kts | 1° |
| 2026-04-16 15:34 | 39.58251 | -3.48406 | 34156 ft | 416 kts | 0° |
| 2026-04-16 15:34 | 39.64091 | -3.47812 | 34153 ft | 416 kts | 1° |
| 2026-04-16 15:35 | 39.69921 | -3.47224 | 34154 ft | 416 kts | 1° |
| 2026-04-16 15:35 | 39.75744 | -3.46639 | 34152 ft | 416 kts | 1° |
| 2026-04-16 15:36 | 39.81579 | -3.45951 | 34151 ft | 418 kts | 7° |
| 2026-04-16 15:36 | 39.87358 | -3.44577 | 34159 ft | 417 kts | 6° |
| 2026-04-16 15:37 | 39.93193 | -3.43387 | 34165 ft | 417 kts | 6° |
| 2026-04-16 15:37 | 39.98990 | -3.42224 | 34170 ft | 418 kts | 6° |
| 2026-04-16 15:38 | 40.04797 | -3.41057 | 34173 ft | 418 kts | 5° |
| 2026-04-16 15:38 | 40.10629 | -3.39885 | 34170 ft | 418 kts | 5° |
| 2026-04-16 15:39 | 40.16421 | -3.38718 | 34178 ft | 418 kts | 5° |
| 2026-04-16 15:39 | 40.22247 | -3.37542 | 34174 ft | 419 kts | 5° |
| 2026-04-16 15:40 | 40.28059 | -3.36367 | 34185 ft | 419 kts | 6° |
| 2026-04-16 15:40 | 40.33894 | -3.35185 | 34183 ft | 420 kts | 6° |
| 2026-04-16 15:41 | 40.39756 | -3.33996 | 34181 ft | 420 kts | 6° |
| 2026-04-16 15:41 | 40.45570 | -3.32814 | 34183 ft | 420 kts | 6° |
| 2026-04-16 15:42 | 40.51391 | -3.31629 | 34183 ft | 420 kts | 6° |
| 2026-04-16 15:42 | 40.57225 | -3.30440 | 34186 ft | 420 kts | 6° |
| 2026-04-16 15:43 | 40.63082 | -3.29243 | 34184 ft | 420 kts | 6° |
| 2026-04-16 15:43 | 40.68897 | -3.28053 | 34183 ft | 420 kts | 6° |
| 2026-04-16 15:44 | 40.74730 | -3.26857 | 34177 ft | 420 kts | 6° |
| 2026-04-16 15:44 | 40.80564 | -3.25659 | 34181 ft | 419 kts | 6° |
| 2026-04-16 15:45 | 40.86398 | -3.24477 | 34186 ft | 419 kts | 5° |
| 2026-04-16 15:45 | 40.92217 | -3.23148 | 34197 ft | 419 kts | 7° |
| 2026-04-16 15:46 | 40.97999 | -3.21848 | 34204 ft | 419 kts | 7° |
| 2026-04-16 15:46 | 41.03846 | -3.20537 | 34208 ft | 419 kts | 7° |
| 2026-04-16 15:47 | 41.09628 | -3.19238 | 34212 ft | 418 kts | 7° |
| 2026-04-16 15:47 | 41.15444 | -3.17930 | 34222 ft | 418 kts | 7° |
| 2026-04-16 15:48 | 41.21239 | -3.16623 | 34226 ft | 419 kts | 7° |
| 2026-04-16 15:48 | 41.27069 | -3.15306 | 34229 ft | 419 kts | 6° |
| 2026-04-16 15:49 | 41.32876 | -3.13992 | 34225 ft | 419 kts | 7° |
| 2026-04-16 15:49 | 41.38681 | -3.12676 | 34218 ft | 420 kts | 6° |
| 2026-04-16 15:50 | 41.44527 | -3.11349 | 34214 ft | 420 kts | 6° |
| 2026-04-16 15:50 | 41.50330 | -3.10029 | 34211 ft | 420 kts | 6° |
| 2026-04-16 15:51 | 41.56097 | -3.08722 | 34213 ft | 421 kts | 6° |
| 2026-04-16 15:51 | 41.61927 | -3.07399 | 34217 ft | 421 kts | 7° |
| 2026-04-16 15:52 | 41.67779 | -3.06068 | 34219 ft | 421 kts | 6° |
| 2026-04-16 15:52 | 41.73625 | -3.04736 | 34222 ft | 421 kts | 6° |
| 2026-04-16 15:53 | 41.79448 | -3.03397 | 34225 ft | 421 kts | 6° |
| 2026-04-16 15:53 | 41.85305 | -3.02047 | 34229 ft | 421 kts | 6° |
| 2026-04-16 15:54 | 41.91143 | -3.00699 | 34237 ft | 421 kts | 6° |
| 2026-04-16 15:54 | 41.96975 | -2.99351 | 34237 ft | 421 kts | 6° |
| 2026-04-16 15:55 | 42.02818 | -2.97998 | 34243 ft | 421 kts | 6° |
| 2026-04-16 15:55 | 42.08643 | -2.96646 | 34246 ft | 421 kts | 6° |
| 2026-04-16 15:56 | 42.14496 | -2.95285 | 34244 ft | 422 kts | 6° |
| 2026-04-16 15:56 | 42.20335 | -2.93925 | 34237 ft | 423 kts | 6° |
| 2026-04-16 15:57 | 42.26202 | -2.92555 | 34233 ft | 423 kts | 6° |
| 2026-04-16 15:57 | 42.32069 | -2.91183 | 34223 ft | 424 kts | 6° |
| 2026-04-16 15:58 | 42.37958 | -2.89804 | 34206 ft | 425 kts | 6° |
| 2026-04-16 15:58 | 42.43786 | -2.88036 | 34193 ft | 430 kts | 16° |
| 2026-04-16 15:59 | 42.51403 | -2.81207 | 34176 ft | 443 kts | 43° |
| 2026-04-16 15:59 | 42.55887 | -2.75412 | 34165 ft | 441 kts | 38° |
| 2026-04-16 16:00 | 42.60528 | -2.69778 | 34164 ft | 442 kts | 38° |
| 2026-04-16 16:00 | 42.65147 | -2.64187 | 34162 ft | 442 kts | 38° |
| 2026-04-16 16:01 | 42.69781 | -2.58568 | 34168 ft | 442 kts | 38° |
| 2026-04-16 16:01 | 42.74400 | -2.52958 | 34167 ft | 443 kts | 38° |
| 2026-04-16 16:02 | 42.79056 | -2.47289 | 34171 ft | 443 kts | 38° |
| 2026-04-16 16:02 | 42.83673 | -2.41657 | 34175 ft | 444 kts | 38° |
| 2026-04-16 16:03 | 42.88311 | -2.35987 | 34170 ft | 444 kts | 38° |
| 2026-04-16 16:03 | 42.92981 | -2.30266 | 34156 ft | 444 kts | 38° |
| 2026-04-16 16:04 | 42.97642 | -2.24543 | 34149 ft | 445 kts | 38° |
| 2026-04-16 16:04 | 43.02290 | -2.18823 | 34150 ft | 445 kts | 39° |
| 2026-04-16 16:05 | 43.06902 | -2.13122 | 34149 ft | 445 kts | 38° |
| 2026-04-16 16:05 | 43.11559 | -2.07362 | 34152 ft | 445 kts | 39° |
| 2026-04-16 16:06 | 43.16218 | -2.01591 | 34150 ft | 445 kts | 39° |
| 2026-04-16 16:06 | 43.20864 | -1.95823 | 34141 ft | 446 kts | 38° |
| 2026-04-16 16:07 | 43.25494 | -1.90063 | 34138 ft | 446 kts | 39° |
| 2026-04-16 16:07 | 43.30166 | -1.84260 | 34134 ft | 446 kts | 37° |
| 2026-04-16 16:08 | 43.35344 | -1.79699 | 34136 ft | 440 kts | 25° |
| 2026-04-16 16:08 | 43.40701 | -1.75388 | 34133 ft | 443 kts | 32° |
| 2026-04-16 16:09 | 43.45838 | -1.70541 | 34136 ft | 443 kts | 30° |
| 2026-04-16 16:09 | 43.51009 | -1.65850 | 34136 ft | 443 kts | 29° |
| 2026-04-16 16:10 | 43.56219 | -1.61130 | 34137 ft | 444 kts | 29° |
| 2026-04-16 16:10 | 43.61434 | -1.56396 | 34136 ft | 444 kts | 29° |
| 2026-04-16 16:11 | 43.66670 | -1.51634 | 34133 ft | 445 kts | 30° |
| 2026-04-16 16:11 | 43.71872 | -1.46893 | 34134 ft | 445 kts | 30° |
| 2026-04-16 16:12 | 43.77099 | -1.42118 | 34135 ft | 446 kts | 30° |
| 2026-04-16 16:12 | 43.82353 | -1.37308 | 34138 ft | 446 kts | 30° |
| 2026-04-16 16:13 | 43.87550 | -1.32541 | 34132 ft | 447 kts | 30° |
| 2026-04-16 16:13 | 43.92807 | -1.27708 | 34136 ft | 447 kts | 30° |
| 2026-04-16 16:14 | 43.98041 | -1.22886 | 34134 ft | 447 kts | 30° |
| 2026-04-16 16:14 | 44.03257 | -1.18070 | 34137 ft | 447 kts | 30° |
| 2026-04-16 16:15 | 44.08482 | -1.13236 | 34135 ft | 447 kts | 30° |
| 2026-04-16 16:15 | 44.13727 | -1.08372 | 34140 ft | 448 kts | 30° |
| 2026-04-16 16:16 | 44.18947 | -1.03521 | 34139 ft | 448 kts | 30° |
| 2026-04-16 16:16 | 44.24181 | -0.98647 | 34143 ft | 448 kts | 30° |
| 2026-04-16 16:17 | 44.29443 | -0.93735 | 34144 ft | 449 kts | 30° |
| 2026-04-16 16:17 | 44.34657 | -0.88859 | 34145 ft | 449 kts | 30° |
| 2026-04-16 16:18 | 44.39984 | -0.84171 | 34142 ft | 445 kts | 22° |
| 2026-04-16 16:18 | 44.45882 | -0.81452 | 34150 ft | 440 kts | 11° |
| 2026-04-16 16:19 | 44.51815 | -0.79068 | 34148 ft | 441 kts | 12° |
| 2026-04-16 16:19 | 44.57780 | -0.76618 | 34148 ft | 441 kts | 12° |
| 2026-04-16 16:20 | 44.63705 | -0.74175 | 34152 ft | 441 kts | 12° |
| 2026-04-16 16:20 | 44.68703 | -0.72110 | 34155 ft | 442 kts | 12° |